sensor_id;sensor_type;location;lat;lon;timestamp;P1;durP1;ratioP1;P2;durP2;ratioP2
59681;SDS011;45548;39.530;-9.118;2022-09-21T08:20:31;20.23;;;7.53;;
59681;SDS011;45548;39.530;-9.118;2022-09-21T08:22:58;21.40;;;8.55;;
59681;SDS011;45548;39.530;-9.118;2022-09-21T08:25:24;19.20;;;7.97;;
59681;SDS011;45548;39.530;-9.118;2022-09-21T08:27:49;19.70;;;9.27;;
59681;SDS011;45548;39.530;-9.118;2022-09-21T08:30:15;23.88;;;10.50;;
59681;SDS011;45548;39.530;-9.118;2022-09-21T08:32:40;23.92;;;10.05;;
59681;SDS011;45548;39.530;-9.118;2022-09-21T08:35:06;21.92;;;9.07;;
59681;SDS011;45548;39.530;-9.118;2022-09-21T08:37:33;29.25;;;8.25;;
59681;SDS011;45548;39.530;-9.118;2022-09-21T08:40:01;17.63;;;8.70;;
59681;SDS011;45548;39.530;-9.118;2022-09-21T08:45:18;30.13;;;8.25;;
59681;SDS011;45548;39.530;-9.118;2022-09-21T08:47:49;17.92;;;7.63;;
59681;SDS011;45548;39.530;-9.118;2022-09-21T08:53:12;19.05;;;7.47;;
59681;SDS011;45548;39.530;-9.118;2022-09-21T08:55:41;16.00;;;6.38;;
59681;SDS011;45548;39.530;-9.118;2022-09-21T08:58:26;34.15;;;7.20;;
59681;SDS011;45548;39.530;-9.118;2022-09-21T09:06:51;16.38;;;6.95;;
59681;SDS011;45548;39.530;-9.118;2022-09-21T09:17:18;17.60;;;7.80;;
59681;SDS011;45548;39.530;-9.118;2022-09-21T09:19:54;14.75;;;6.32;;
59681;SDS011;45548;39.530;-9.118;2022-09-21T09:22:31;15.23;;;7.35;;
59681;SDS011;45548;39.530;-9.118;2022-09-21T09:25:11;19.67;;;7.90;;
59681;SDS011;45548;39.530;-9.118;2022-09-21T09:27:43;30.60;;;7.07;;
59681;SDS011;45548;39.530;-9.118;2022-09-21T09:32:45;12.35;;;6.35;;
59681;SDS011;45548;39.530;-9.118;2022-09-21T09:35:30;35.67;;;7.60;;
59681;SDS011;45548;39.530;-9.118;2022-09-21T09:38:13;25.35;;;6.97;;
59681;SDS011;45548;39.530;-9.118;2022-09-21T09:46:31;114.65;;;9.98;;
59681;SDS011;45548;39.530;-9.118;2022-09-21T09:49:17;18.50;;;6.30;;
59681;SDS011;45548;39.530;-9.118;2022-09-21T09:51:44;15.73;;;6.30;;
59681;SDS011;45548;39.530;-9.118;2022-09-21T09:54:12;14.50;;;7.13;;
59681;SDS011;45548;39.530;-9.118;2022-09-21T09:56:40;15.15;;;6.47;;
59681;SDS011;45548;39.530;-9.118;2022-09-21T09:59:18;17.73;;;7.10;;
59681;SDS011;45548;39.530;-9.118;2022-09-21T10:04:23;87.68;;;8.30;;
59681;SDS011;45548;39.530;-9.118;2022-09-21T10:06:49;34.30;;;6.40;;
59681;SDS011;45548;39.530;-9.118;2022-09-21T10:11:51;15.35;;;6.97;;
59681;SDS011;45548;39.530;-9.118;2022-09-21T10:14:21;13.70;;;6.97;;
59681;SDS011;45548;39.530;-9.118;2022-09-21T10:16:51;16.73;;;7.57;;
59681;SDS011;45548;39.530;-9.118;2022-09-21T10:19:23;14.02;;;5.90;;
59681;SDS011;45548;39.530;-9.118;2022-09-21T10:21:57;15.05;;;6.72;;
59681;SDS011;45548;39.530;-9.118;2022-09-21T10:24:27;44.22;;;9.20;;
59681;SDS011;45548;39.530;-9.118;2022-09-21T10:27:01;14.55;;;7.10;;
59681;SDS011;45548;39.530;-9.118;2022-09-21T10:29:32;15.02;;;7.30;;
59681;SDS011;45548;39.530;-9.118;2022-09-21T10:34:36;58.20;;;10.68;;
59681;SDS011;45548;39.530;-9.118;2022-09-21T10:37:25;55.53;;;15.32;;
59681;SDS011;45548;39.530;-9.118;2022-09-21T10:39:53;15.18;;;7.85;;
59681;SDS011;45548;39.530;-9.118;2022-09-21T10:42:20;13.32;;;8.45;;
59681;SDS011;45548;39.530;-9.118;2022-09-21T10:45:02;15.25;;;6.93;;
59681;SDS011;45548;39.530;-9.118;2022-09-21T10:47:43;15.88;;;8.38;;
59681;SDS011;45548;39.530;-9.118;2022-09-21T10:50:45;14.18;;;7.60;;
59681;SDS011;45548;39.530;-9.118;2022-09-21T10:55:46;221.02;;;16.50;;
59681;SDS011;45548;39.530;-9.118;2022-09-21T10:58:30;29.50;;;6.60;;
59681;SDS011;45548;39.530;-9.118;2022-09-21T11:01:08;50.28;;;7.75;;
59681;SDS011;45548;39.530;-9.118;2022-09-21T11:03:38;13.48;;;6.80;;
59681;SDS011;45548;39.530;-9.118;2022-09-21T11:06:16;63.75;;;8.40;;
59681;SDS011;45548;39.530;-9.118;2022-09-21T11:08:48;15.93;;;6.30;;
59681;SDS011;45548;39.530;-9.118;2022-09-21T11:11:38;94.47;;;9.75;;
59681;SDS011;45548;39.530;-9.118;2022-09-21T11:17:03;41.97;;;7.72;;
59681;SDS011;45548;39.530;-9.118;2022-09-21T11:19:40;38.55;;;7.50;;
59681;SDS011;45548;39.530;-9.118;2022-09-21T11:22:15;102.63;;;10.48;;
59681;SDS011;45548;39.530;-9.118;2022-09-21T11:27:46;14.40;;;6.75;;
59681;SDS011;45548;39.530;-9.118;2022-09-21T11:30:20;41.08;;;8.77;;
59681;SDS011;45548;39.530;-9.118;2022-09-21T11:35:52;53.13;;;9.18;;
59681;SDS011;45548;39.530;-9.118;2022-09-21T11:41:23;23.05;;;7.68;;
59681;SDS011;45548;39.530;-9.118;2022-09-21T11:44:09;23.42;;;7.07;;
59681;SDS011;45548;39.530;-9.118;2022-09-21T11:57:47;25.98;;;7.30;;
59681;SDS011;45548;39.530;-9.118;2022-09-21T12:00:21;17.80;;;7.63;;
59681;SDS011;45548;39.530;-9.118;2022-09-21T12:08:54;51.07;;;9.20;;
59681;SDS011;45548;39.530;-9.118;2022-09-21T12:11:42;59.88;;;8.15;;
59681;SDS011;45548;39.530;-9.118;2022-09-21T12:19:44;104.70;;;10.88;;
59681;SDS011;45548;39.530;-9.118;2022-09-21T12:22:23;101.05;;;12.30;;
59681;SDS011;45548;39.530;-9.118;2022-09-21T12:27:43;17.03;;;6.87;;
59681;SDS011;45548;39.530;-9.118;2022-09-21T12:30:15;14.85;;;6.18;;
59681;SDS011;45548;39.530;-9.118;2022-09-21T12:32:56;162.73;;;13.02;;
59681;SDS011;45548;39.530;-9.118;2022-09-21T12:35:41;124.63;;;12.27;;
59681;SDS011;45548;39.530;-9.118;2022-09-21T12:46:25;18.83;;;5.82;;
59681;SDS011;45548;39.530;-9.118;2022-09-21T12:48:58;127.30;;;13.43;;
59681;SDS011;45548;39.530;-9.118;2022-09-21T12:51:30;159.98;;;11.57;;
59681;SDS011;45548;39.530;-9.118;2022-09-21T12:54:00;133.77;;;17.30;;
59681;SDS011;45548;39.530;-9.118;2022-09-21T12:56:42;47.33;;;6.13;;
59681;SDS011;45548;39.530;-9.118;2022-09-21T13:10:14;74.63;;;8.38;;
59681;SDS011;45548;39.530;-9.118;2022-09-21T13:12:52;16.67;;;6.80;;
59681;SDS011;45548;39.530;-9.118;2022-09-21T13:15:24;80.53;;;9.70;;
59681;SDS011;45548;39.530;-9.118;2022-09-21T13:18:04;14.98;;;6.50;;
59681;SDS011;45548;39.530;-9.118;2022-09-21T13:20:42;41.40;;;6.90;;
59681;SDS011;45548;39.530;-9.118;2022-09-21T13:23:23;12.30;;;5.30;;
59681;SDS011;45548;39.530;-9.118;2022-09-21T13:26:03;62.88;;;7.25;;
59681;SDS011;45548;39.530;-9.118;2022-09-21T13:34:23;53.20;;;6.50;;
59681;SDS011;45548;39.530;-9.118;2022-09-21T13:39:35;173.00;;;10.80;;
59681;SDS011;45548;39.530;-9.118;2022-09-21T13:47:32;18.45;;;5.53;;
59681;SDS011;45548;39.530;-9.118;2022-09-21T13:53:16;12.75;;;4.93;;
59681;SDS011;45548;39.530;-9.118;2022-09-21T13:58:33;52.85;;;6.95;;
59681;SDS011;45548;39.530;-9.118;2022-09-21T14:01:12;60.42;;;7.22;;
59681;SDS011;45548;39.530;-9.118;2022-09-21T14:06:24;77.78;;;7.30;;
59681;SDS011;45548;39.530;-9.118;2022-09-21T14:17:02;77.72;;;7.50;;
59681;SDS011;45548;39.530;-9.118;2022-09-21T14:29:53;30.50;;;5.63;;
59681;SDS011;45548;39.530;-9.118;2022-09-21T14:32:50;49.08;;;6.32;;
59681;SDS011;45548;39.530;-9.118;2022-09-21T14:35:29;19.27;;;4.75;;
59681;SDS011;45548;39.530;-9.118;2022-09-21T14:37:58;15.23;;;5.07;;
59681;SDS011;45548;39.530;-9.118;2022-09-21T14:40:28;89.60;;;7.63;;
59681;SDS011;45548;39.530;-9.118;2022-09-21T14:42:57;62.95;;;6.93;;
59681;SDS011;45548;39.530;-9.118;2022-09-21T14:45:48;98.88;;;8.40;;
59681;SDS011;45548;39.530;-9.118;2022-09-21T14:54:13;52.95;;;7.10;;
59681;SDS011;45548;39.530;-9.118;2022-09-21T15:00:05;14.23;;;4.93;;
59681;SDS011;45548;39.530;-9.118;2022-09-21T15:02:44;34.25;;;6.63;;
59681;SDS011;45548;39.530;-9.118;2022-09-21T15:14:12;30.75;;;5.47;;
59681;SDS011;45548;39.530;-9.118;2022-09-21T15:16:49;15.10;;;5.30;;
59681;SDS011;45548;39.530;-9.118;2022-09-21T15:19:28;16.30;;;5.03;;
59681;SDS011;45548;39.530;-9.118;2022-09-21T15:24:51;17.65;;;5.10;;
59681;SDS011;45548;39.530;-9.118;2022-09-21T15:27:20;13.35;;;4.47;;
59681;SDS011;45548;39.530;-9.118;2022-09-21T15:29:52;13.63;;;5.03;;
59681;SDS011;45548;39.530;-9.118;2022-09-21T15:32:23;13.88;;;4.68;;
59681;SDS011;45548;39.530;-9.118;2022-09-21T15:34:59;41.40;;;6.93;;
59681;SDS011;45548;39.530;-9.118;2022-09-21T15:37:26;13.10;;;4.47;;
59681;SDS011;45548;39.530;-9.118;2022-09-21T15:40:03;19.08;;;4.82;;
59681;SDS011;45548;39.530;-9.118;2022-09-21T15:42:32;12.38;;;4.75;;
59681;SDS011;45548;39.530;-9.118;2022-09-21T15:45:17;29.13;;;5.40;;
59681;SDS011;45548;39.530;-9.118;2022-09-21T15:47:43;11.82;;;4.50;;
59681;SDS011;45548;39.530;-9.118;2022-09-21T15:50:15;11.85;;;4.63;;
59681;SDS011;45548;39.530;-9.118;2022-09-21T15:52:49;252.13;;;13.88;;
59681;SDS011;45548;39.530;-9.118;2022-09-21T15:55:18;65.00;;;6.82;;
59681;SDS011;45548;39.530;-9.118;2022-09-21T15:57:52;12.88;;;4.55;;
59681;SDS011;45548;39.530;-9.118;2022-09-21T16:03:05;11.90;;;4.43;;
59681;SDS011;45548;39.530;-9.118;2022-09-21T16:05:41;40.65;;;6.15;;
59681;SDS011;45548;39.530;-9.118;2022-09-21T16:08:24;11.40;;;4.93;;
59681;SDS011;45548;39.530;-9.118;2022-09-21T16:11:17;13.25;;;5.00;;
59681;SDS011;45548;39.530;-9.118;2022-09-21T16:13:44;15.13;;;4.85;;
59681;SDS011;45548;39.530;-9.118;2022-09-21T16:16:30;15.40;;;4.80;;
59681;SDS011;45548;39.530;-9.118;2022-09-21T16:18:56;13.48;;;4.57;;
59681;SDS011;45548;39.530;-9.118;2022-09-21T16:21:33;10.30;;;3.95;;
59681;SDS011;45548;39.530;-9.118;2022-09-21T16:24:17;11.15;;;4.25;;
59681;SDS011;45548;39.530;-9.118;2022-09-21T16:26:55;36.88;;;6.07;;
59681;SDS011;45548;39.530;-9.118;2022-09-21T16:29:26;11.82;;;4.50;;
59681;SDS011;45548;39.530;-9.118;2022-09-21T16:32:18;10.45;;;4.32;;
59681;SDS011;45548;39.530;-9.118;2022-09-21T16:34:52;13.10;;;4.53;;
59681;SDS011;45548;39.530;-9.118;2022-09-21T16:37:28;12.82;;;4.57;;
59681;SDS011;45548;39.530;-9.118;2022-09-21T16:39:54;13.68;;;4.70;;
59681;SDS011;45548;39.530;-9.118;2022-09-21T16:42:23;12.27;;;4.35;;
59681;SDS011;45548;39.530;-9.118;2022-09-21T16:44:52;13.70;;;5.03;;
59681;SDS011;45548;39.530;-9.118;2022-09-21T16:47:21;14.73;;;4.72;;
59681;SDS011;45548;39.530;-9.118;2022-09-21T16:49:52;10.83;;;4.37;;
59681;SDS011;45548;39.530;-9.118;2022-09-21T16:52:21;22.65;;;4.53;;
59681;SDS011;45548;39.530;-9.118;2022-09-21T16:54:48;10.88;;;4.05;;
59681;SDS011;45548;39.530;-9.118;2022-09-21T16:57:15;9.90;;;4.30;;
59681;SDS011;45548;39.530;-9.118;2022-09-21T16:59:40;15.82;;;4.88;;
59681;SDS011;45548;39.530;-9.118;2022-09-21T17:02:08;12.40;;;4.53;;
59681;SDS011;45548;39.530;-9.118;2022-09-21T17:04:36;10.50;;;3.72;;
59681;SDS011;45548;39.530;-9.118;2022-09-21T17:07:01;9.95;;;3.53;;
59681;SDS011;45548;39.530;-9.118;2022-09-21T17:09:34;11.57;;;4.10;;
59681;SDS011;45548;39.530;-9.118;2022-09-21T17:12:08;14.30;;;4.97;;
59681;SDS011;45548;39.530;-9.118;2022-09-21T17:14:37;41.50;;;5.15;;
59681;SDS011;45548;39.530;-9.118;2022-09-21T17:19:32;12.50;;;4.40;;
59681;SDS011;45548;39.530;-9.118;2022-09-21T17:22:00;12.95;;;4.85;;
59681;SDS011;45548;39.530;-9.118;2022-09-21T17:24:27;11.77;;;4.30;;
59681;SDS011;45548;39.530;-9.118;2022-09-21T17:26:53;12.52;;;4.30;;
59681;SDS011;45548;39.530;-9.118;2022-09-21T17:29:19;11.45;;;4.15;;
59681;SDS011;45548;39.530;-9.118;2022-09-21T17:34:23;10.52;;;3.92;;
59681;SDS011;45548;39.530;-9.118;2022-09-21T17:36:50;12.45;;;4.70;;
59681;SDS011;45548;39.530;-9.118;2022-09-21T17:39:17;13.25;;;5.15;;
59681;SDS011;45548;39.530;-9.118;2022-09-21T17:41:45;11.00;;;4.35;;
59681;SDS011;45548;39.530;-9.118;2022-09-21T17:47:10;13.10;;;5.00;;
59681;SDS011;45548;39.530;-9.118;2022-09-21T17:49:54;12.80;;;4.80;;
59681;SDS011;45548;39.530;-9.118;2022-09-21T17:52:23;13.77;;;4.40;;
59681;SDS011;45548;39.530;-9.118;2022-09-21T17:55:11;14.32;;;5.07;;
59681;SDS011;45548;39.530;-9.118;2022-09-21T18:02:35;11.35;;;4.35;;
59681;SDS011;45548;39.530;-9.118;2022-09-21T18:05:02;12.88;;;4.80;;
59681;SDS011;45548;39.530;-9.118;2022-09-21T18:07:37;14.35;;;4.88;;
59681;SDS011;45548;39.530;-9.118;2022-09-21T18:10:03;13.05;;;5.00;;
59681;SDS011;45548;39.530;-9.118;2022-09-21T18:17:41;11.93;;;4.70;;
59681;SDS011;45548;39.530;-9.118;2022-09-21T18:20:46;15.48;;;5.30;;
59681;SDS011;45548;39.530;-9.118;2022-09-21T18:26:24;15.32;;;5.47;;
59681;SDS011;45548;39.530;-9.118;2022-09-21T18:28:51;14.05;;;5.38;;
59681;SDS011;45548;39.530;-9.118;2022-09-21T18:37:14;15.60;;;5.97;;
59681;SDS011;45548;39.530;-9.118;2022-09-21T18:42:48;13.60;;;5.63;;
59681;SDS011;45548;39.530;-9.118;2022-09-21T18:45:24;16.20;;;5.68;;
59681;SDS011;45548;39.530;-9.118;2022-09-21T18:56:13;15.55;;;6.00;;
59681;SDS011;45548;39.530;-9.118;2022-09-21T18:58:40;20.77;;;7.53;;
59681;SDS011;45548;39.530;-9.118;2022-09-21T19:01:13;17.40;;;6.95;;
59681;SDS011;45548;39.530;-9.118;2022-09-21T19:03:41;14.47;;;6.20;;
59681;SDS011;45548;39.530;-9.118;2022-09-21T19:09:06;20.45;;;7.57;;
59681;SDS011;45548;39.530;-9.118;2022-09-21T19:11:46;14.98;;;7.30;;
59681;SDS011;45548;39.530;-9.118;2022-09-21T19:25:24;22.02;;;10.38;;
59681;SDS011;45548;39.530;-9.118;2022-09-21T19:27:59;19.65;;;10.38;;
59681;SDS011;45548;39.530;-9.118;2022-09-21T19:30:30;20.65;;;8.52;;
59681;SDS011;45548;39.530;-9.118;2022-09-21T19:32:56;14.85;;;8.25;;
59681;SDS011;45548;39.530;-9.118;2022-09-21T19:35:27;17.40;;;9.43;;
59681;SDS011;45548;39.530;-9.118;2022-09-21T19:37:56;15.57;;;7.07;;
59681;SDS011;45548;39.530;-9.118;2022-09-21T19:40:33;16.98;;;7.95;;
59681;SDS011;45548;39.530;-9.118;2022-09-21T19:48:46;17.85;;;7.97;;
59681;SDS011;45548;39.530;-9.118;2022-09-21T19:51:18;11.75;;;6.43;;
59681;SDS011;45548;39.530;-9.118;2022-09-21T19:53:51;12.52;;;6.93;;
59681;SDS011;45548;39.530;-9.118;2022-09-21T19:56:42;19.58;;;10.82;;
59681;SDS011;45548;39.530;-9.118;2022-09-21T19:59:31;15.40;;;6.97;;
59681;SDS011;45548;39.530;-9.118;2022-09-21T20:02:11;21.48;;;9.57;;
59681;SDS011;45548;39.530;-9.118;2022-09-21T20:05:12;14.13;;;7.22;;
59681;SDS011;45548;39.530;-9.118;2022-09-21T20:15:37;15.18;;;8.75;;
59681;SDS011;45548;39.530;-9.118;2022-09-21T20:21:01;16.20;;;9.30;;
59681;SDS011;45548;39.530;-9.118;2022-09-21T20:23:27;18.92;;;10.10;;
59681;SDS011;45548;39.530;-9.118;2022-09-21T20:26:04;16.63;;;8.57;;
59681;SDS011;45548;39.530;-9.118;2022-09-21T20:28:33;24.05;;;11.02;;
59681;SDS011;45548;39.530;-9.118;2022-09-21T20:30:59;19.27;;;11.13;;
59681;SDS011;45548;39.530;-9.118;2022-09-21T20:33:25;23.00;;;10.40;;
59681;SDS011;45548;39.530;-9.118;2022-09-21T20:35:53;17.75;;;8.30;;
59681;SDS011;45548;39.530;-9.118;2022-09-21T20:38:20;16.05;;;8.38;;
59681;SDS011;45548;39.530;-9.118;2022-09-21T20:40:47;20.05;;;9.25;;
59681;SDS011;45548;39.530;-9.118;2022-09-21T20:43:13;22.48;;;11.77;;
59681;SDS011;45548;39.530;-9.118;2022-09-21T20:45:38;20.88;;;11.98;;
59681;SDS011;45548;39.530;-9.118;2022-09-21T20:48:04;22.15;;;14.02;;
59681;SDS011;45548;39.530;-9.118;2022-09-21T20:50:40;19.85;;;10.90;;
59681;SDS011;45548;39.530;-9.118;2022-09-21T20:53:07;19.77;;;9.77;;
59681;SDS011;45548;39.530;-9.118;2022-09-21T20:55:33;18.00;;;11.30;;
59681;SDS011;45548;39.530;-9.118;2022-09-21T20:57:59;19.58;;;11.45;;
59681;SDS011;45548;39.530;-9.118;2022-09-21T21:00:25;16.65;;;9.32;;
59681;SDS011;45548;39.530;-9.118;2022-09-21T21:02:50;17.25;;;9.82;;
59681;SDS011;45548;39.530;-9.118;2022-09-21T21:05:16;20.50;;;8.95;;
59681;SDS011;45548;39.530;-9.118;2022-09-21T21:07:43;17.77;;;10.52;;
59681;SDS011;45548;39.530;-9.118;2022-09-21T21:10:09;25.58;;;14.23;;
59681;SDS011;45548;39.530;-9.118;2022-09-21T21:12:38;25.30;;;13.10;;
59681;SDS011;45548;39.530;-9.118;2022-09-21T21:15:05;21.60;;;11.80;;
59681;SDS011;45548;39.530;-9.118;2022-09-21T21:17:32;17.55;;;10.27;;
59681;SDS011;45548;39.530;-9.118;2022-09-21T21:20:00;22.55;;;11.70;;
59681;SDS011;45548;39.530;-9.118;2022-09-21T21:22:26;21.88;;;11.40;;
59681;SDS011;45548;39.530;-9.118;2022-09-21T21:24:51;19.35;;;11.63;;
59681;SDS011;45548;39.530;-9.118;2022-09-21T21:27:20;21.52;;;12.43;;
